createdAt,value
2023-05-14T00:01:04.185Z,0.4874
2023-05-14T00:02:12.333Z,0.4706
2023-05-14T00:03:20.506Z,0.4697
2023-05-14T00:04:28.275Z,0.4824
2023-05-14T00:05:36.323Z,0.4729
2023-05-14T00:06:44.457Z,0.4764
2023-05-14T00:07:52.611Z,0.4864
2023-05-14T00:09:00.629Z,0.4875
2023-05-14T00:10:08.724Z,0.4722
2023-05-14T00:11:16.771Z,0.4693
2023-05-14T00:12:24.841Z,0.4748
2023-05-14T00:13:33.108Z,0.4786
2023-05-14T00:14:41.098Z,0.4830
2023-05-14T00:15:49.067Z,0.4864
2023-05-14T00:16:57.226Z,0.4735
2023-05-14T00:18:05.340Z,0.5006
2023-05-14T00:19:13.136Z,0.4922
2023-05-14T00:20:21.322Z,0.4766
2023-05-14T00:21:29.217Z,0.4786
2023-05-14T00:22:37.414Z,0.4829
2023-05-14T00:23:45.647Z,0.4817
2023-05-14T00:24:53.544Z,0.4742
2023-05-14T00:26:01.569Z,0.4669
2023-05-14T00:27:09.662Z,0.4764
2023-05-14T00:28:17.779Z,0.4790
2023-05-14T00:29:25.883Z,0.4886
2023-05-14T00:30:33.961Z,0.5021
2023-05-14T00:31:41.913Z,0.4899
2023-05-14T00:32:50.025Z,0.4932
2023-05-14T00:33:57.879Z,0.4929
2023-05-14T00:35:05.984Z,0.4889
2023-05-14T00:36:14.005Z,0.4912
2023-05-14T00:37:22.188Z,0.4889
2023-05-14T00:38:30.233Z,0.5055
2023-05-14T00:39:38.447Z,0.5058
2023-05-14T00:40:46.426Z,0.4953
2023-05-14T00:41:54.445Z,0.4991
2023-05-14T00:43:02.511Z,0.4886
2023-05-14T00:44:10.524Z,0.4901
2023-05-14T00:45:18.616Z,0.4948
2023-05-14T00:46:26.850Z,0.4586
2023-05-14T00:47:34.981Z,0.4694
2023-05-14T00:48:42.656Z,0.4694
2023-05-14T00:49:50.759Z,0.5013
2023-05-14T00:50:58.779Z,0.5081
2023-05-14T00:52:07.014Z,0.4952
2023-05-14T00:53:15.016Z,0.4865
2023-05-14T00:54:23.096Z,0.4723
2023-05-14T00:55:31.260Z,0.4904
2023-05-14T00:56:39.305Z,0.4904
2023-05-14T00:57:47.300Z,0.4897
2023-05-14T00:58:55.302Z,0.4762
2023-05-14T01:00:03.429Z,0.4811
2023-05-14T01:01:11.600Z,0.4940
2023-05-14T01:02:19.553Z,0.4905
2023-05-14T01:03:27.632Z,0.4765
2023-05-14T01:04:35.494Z,0.4768
2023-05-14T01:05:43.571Z,0.4762
2023-05-14T01:06:51.740Z,0.4693
2023-05-14T01:07:59.921Z,0.4769
2023-05-14T01:09:07.952Z,0.4635
2023-05-14T01:10:15.942Z,0.4828
2023-05-14T01:11:24.136Z,0.4864
2023-05-14T01:12:32.068Z,0.4729
2023-05-14T01:13:40.108Z,0.4645
2023-05-14T01:14:48.235Z,0.4739
2023-05-14T01:15:56.217Z,0.4668
2023-05-14T01:17:04.321Z,0.4726
2023-05-14T01:18:12.368Z,0.4833
2023-05-14T01:19:20.269Z,0.4850
2023-05-14T01:20:28.384Z,0.4823
2023-05-14T01:21:36.518Z,0.4803
2023-05-14T01:22:44.595Z,0.4778
2023-05-14T01:23:52.722Z,0.4702
2023-05-14T01:25:00.721Z,0.4870
2023-05-14T01:26:08.835Z,0.4784
2023-05-14T01:27:16.863Z,0.4908
2023-05-14T01:28:24.891Z,0.4712
2023-05-14T01:29:32.968Z,0.4615
2023-05-14T01:30:41.026Z,0.4632
2023-05-14T01:31:49.162Z,0.4709
2023-05-14T01:32:57.085Z,0.4865
2023-05-14T01:34:05.057Z,0.4823
2023-05-14T01:35:13.185Z,0.4823
2023-05-14T01:36:21.445Z,0.4925
2023-05-14T01:37:29.581Z,0.4957
2023-05-14T01:38:37.508Z,0.4901
2023-05-14T01:39:45.473Z,0.4711
2023-05-14T01:40:53.553Z,0.4780
2023-05-14T01:42:01.684Z,0.4950
2023-05-14T01:43:09.750Z,0.4894
2023-05-14T01:44:17.753Z,0.4793
2023-05-14T01:45:25.846Z,0.4703
2023-05-14T01:46:34.042Z,0.4871
2023-05-14T01:47:41.805Z,0.4950
2023-05-14T01:48:49.859Z,0.4804
2023-05-14T01:49:57.920Z,0.4642
2023-05-14T01:51:06.098Z,0.4871
2023-05-14T01:52:14.247Z,0.4685
2023-05-14T01:53:22.205Z,0.4682
2023-05-14T01:54:30.316Z,0.4929
2023-05-14T01:55:38.307Z,0.4858
2023-05-14T01:56:46.387Z,0.4845
2023-05-14T01:57:54.436Z,0.4833
2023-05-14T01:59:02.654Z,0.4735
2023-05-14T02:00:10.678Z,0.4891
2023-05-14T02:01:18.710Z,0.4950
2023-05-14T02:02:26.591Z,0.4941
2023-05-14T02:03:34.651Z,0.4762
2023-05-14T02:04:42.709Z,0.4869
2023-05-14T02:05:50.944Z,0.4633
2023-05-14T02:06:58.940Z,0.4642
2023-05-14T02:08:07.125Z,0.4766
2023-05-14T02:09:15.072Z,0.4914
2023-05-14T02:10:23.274Z,0.4807
2023-05-14T02:11:31.239Z,0.4896
2023-05-14T02:12:39.238Z,0.4782
2023-05-14T02:13:47.330Z,0.4756
2023-05-14T02:14:55.425Z,0.4807
2023-05-14T02:16:03.658Z,0.4960
2023-05-14T02:17:11.400Z,0.4939
2023-05-14T02:18:19.401Z,0.4990
2023-05-14T02:19:27.514Z,0.5043
2023-05-14T02:20:35.700Z,0.4984
2023-05-14T02:21:43.731Z,0.4717
2023-05-14T02:22:51.840Z,0.4916
2023-05-14T02:23:59.984Z,0.4825
2023-05-14T02:25:07.922Z,0.4799
2023-05-14T02:26:15.995Z,0.4743
2023-05-14T02:27:24.062Z,0.4870
2023-05-14T02:28:32.155Z,0.4925
2023-05-14T02:29:40.232Z,0.4933
2023-05-14T02:30:48.235Z,0.4754
2023-05-14T02:31:56.213Z,0.4541
2023-05-14T02:33:04.341Z,0.4815
2023-05-14T02:34:12.361Z,0.4778
2023-05-14T02:35:20.465Z,0.4875
2023-05-14T02:36:28.515Z,0.5016
2023-05-14T02:37:36.613Z,0.4921
2023-05-14T02:38:44.674Z,0.4802
2023-05-14T02:39:52.876Z,0.4729
2023-05-14T02:41:00.763Z,0.4652
2023-05-14T02:42:08.860Z,0.4861
2023-05-14T02:43:16.893Z,0.4850
2023-05-14T02:44:24.948Z,0.4773
2023-05-14T02:45:33.038Z,0.4844
2023-05-14T02:46:40.958Z,0.4983
2023-05-14T02:47:49.036Z,0.4951
2023-05-14T02:48:57.024Z,0.4865
2023-05-14T02:50:05.217Z,0.4707
2023-05-14T02:51:13.388Z,0.4735
2023-05-14T02:52:21.370Z,0.4694
2023-05-14T02:53:29.410Z,0.4738
2023-05-14T02:54:37.513Z,0.4938
2023-05-14T02:55:45.661Z,0.4783
2023-05-14T02:56:53.707Z,0.4674
2023-05-14T02:58:01.639Z,0.4626
2023-05-14T02:59:09.676Z,0.4759
2023-05-14T03:00:17.640Z,0.4791
2023-05-14T03:01:25.779Z,0.4870
2023-05-14T03:02:33.907Z,0.4898
2023-05-14T03:03:41.957Z,0.4918
2023-05-14T03:04:50.216Z,0.4839
2023-05-14T03:05:58.071Z,0.4675
2023-05-14T03:07:06.136Z,0.4711
2023-05-14T03:08:14.229Z,0.4847
2023-05-14T03:09:22.308Z,0.4805
2023-05-14T03:10:30.292Z,0.4951
2023-05-14T03:11:38.485Z,0.4923
2023-05-14T03:12:46.487Z,0.4941
2023-05-14T03:13:54.521Z,0.4918
2023-05-14T03:15:02.415Z,0.4809
2023-05-14T03:16:10.460Z,0.4968
2023-05-14T03:17:18.543Z,0.4763
2023-05-14T03:18:26.751Z,0.4684
2023-05-14T03:19:34.841Z,0.5000
2023-05-14T03:20:42.691Z,0.4973
2023-05-14T03:21:50.849Z,0.4989
2023-05-14T03:22:58.954Z,0.5004
2023-05-14T03:24:06.998Z,0.4884
2023-05-14T03:25:15.083Z,0.4830
2023-05-14T03:26:23.105Z,0.4962
2023-05-14T03:27:31.120Z,0.4678
2023-05-14T03:28:39.191Z,0.4703
2023-05-14T03:29:47.110Z,0.4789
2023-05-14T03:30:55.258Z,0.4769
2023-05-14T03:32:03.259Z,0.4720
2023-05-14T03:33:11.671Z,0.4905
2023-05-14T03:34:19.473Z,0.5037
2023-05-14T03:35:27.551Z,0.4960
2023-05-14T03:36:35.721Z,0.4827
2023-05-14T03:37:43.663Z,0.4695
2023-05-14T03:38:51.731Z,0.4741
2023-05-14T03:39:59.741Z,0.4772
2023-05-14T03:41:07.814Z,0.4872
2023-05-14T03:42:15.951Z,0.4796
2023-05-14T03:43:23.921Z,0.4816
2023-05-14T03:44:31.861Z,0.4843
2023-05-14T03:45:39.895Z,0.4992
2023-05-14T03:46:47.975Z,0.4966
2023-05-14T03:47:56.403Z,0.4839
2023-05-14T03:49:04.360Z,0.4946
2023-05-14T03:50:12.293Z,0.5026
2023-05-14T03:51:20.399Z,0.4942
2023-05-14T03:52:28.637Z,0.4947
2023-05-14T03:53:36.481Z,0.4861
2023-05-14T03:54:44.538Z,0.4914
2023-05-14T03:55:52.545Z,0.4704
2023-05-14T03:57:00.854Z,0.4674
2023-05-14T03:58:08.729Z,0.4647
2023-05-14T03:59:16.655Z,0.4769
2023-05-14T04:00:24.885Z,0.4745
2023-05-14T04:01:32.721Z,0.4875
2023-05-14T04:02:41.101Z,0.4744
2023-05-14T04:03:49.160Z,0.4784
2023-05-14T04:04:57.089Z,0.4894
2023-05-14T04:06:05.294Z,0.4687
2023-05-14T04:07:13.110Z,0.4782
2023-05-14T04:08:21.151Z,0.4810
2023-05-14T04:09:29.232Z,0.4824
2023-05-14T04:10:37.309Z,0.5002
2023-05-14T04:11:45.475Z,0.4851
2023-05-14T04:12:53.497Z,0.4886
2023-05-14T04:14:01.425Z,0.4971
2023-05-14T04:15:09.499Z,0.4751
2023-05-14T04:16:17.657Z,0.4799
2023-05-14T04:17:25.904Z,0.4725
2023-05-14T04:18:33.985Z,0.4851
2023-05-14T04:19:41.857Z,0.4844
2023-05-14T04:20:49.915Z,0.5005
2023-05-14T04:21:57.881Z,0.5060
2023-05-14T04:23:06.022Z,0.4875
2023-05-14T04:24:14.138Z,0.4613
2023-05-14T04:25:22.270Z,0.4554
2023-05-14T04:26:30.194Z,0.4571
2023-05-14T04:27:38.333Z,0.4609
2023-05-14T04:28:46.208Z,0.4695
2023-05-14T04:29:54.248Z,0.4776
2023-05-14T04:31:02.338Z,0.4896
2023-05-14T04:32:10.498Z,0.4737
2023-05-14T04:33:18.596Z,0.4636
2023-05-14T04:34:26.834Z,0.4819
2023-05-14T04:35:34.672Z,0.4883
2023-05-14T04:36:42.830Z,0.4797
2023-05-14T04:37:50.769Z,0.4857
2023-05-14T04:38:58.966Z,0.4731
2023-05-14T04:40:06.947Z,0.4931
2023-05-14T04:41:14.967Z,0.4954
2023-05-14T04:42:23.119Z,0.4767
2023-05-14T04:43:30.961Z,0.4610
2023-05-14T04:44:39.045Z,0.4646
2023-05-14T04:45:47.067Z,0.4747
2023-05-14T04:46:55.290Z,0.4912
2023-05-14T04:48:03.343Z,0.4933
2023-05-14T04:49:11.445Z,0.4927
2023-05-14T04:50:19.582Z,0.5042
2023-05-14T04:51:27.494Z,0.4747
2023-05-14T04:52:35.558Z,0.4909
2023-05-14T04:53:43.622Z,0.4739
2023-05-14T04:54:51.695Z,0.4690
2023-05-14T04:55:59.803Z,0.4657
2023-05-14T04:57:07.783Z,0.4718
2023-05-14T04:58:15.722Z,0.4914
2023-05-14T04:59:23.772Z,0.4819
2023-05-14T05:00:31.853Z,0.4820
2023-05-14T05:01:40.160Z,0.4731
2023-05-14T05:02:48.106Z,0.4836
2023-05-14T05:03:56.261Z,0.4974
2023-05-14T05:05:04.277Z,0.5050
2023-05-14T05:06:12.546Z,0.4752
2023-05-14T05:07:20.447Z,0.4865
2023-05-14T05:08:28.375Z,0.4748
2023-05-14T05:09:36.449Z,0.4781
2023-05-14T05:10:44.569Z,0.4736
2023-05-14T05:11:52.556Z,0.4760
2023-05-14T05:13:00.576Z,0.4776
2023-05-14T05:14:08.569Z,0.4908
2023-05-14T05:15:16.611Z,0.4890
2023-05-14T05:16:24.857Z,0.4582
2023-05-14T05:17:32.925Z,0.4693
2023-05-14T05:18:41.092Z,0.4678
2023-05-14T05:19:48.979Z,0.4574
2023-05-14T05:20:57.140Z,0.4676
2023-05-14T05:22:05.257Z,0.4748
2023-05-14T05:23:13.048Z,0.4811
2023-05-14T05:24:21.308Z,0.4857
2023-05-14T05:25:29.505Z,0.4738
2023-05-14T05:26:37.332Z,0.4752
2023-05-14T05:27:45.313Z,0.4650
2023-05-14T05:28:53.292Z,0.4615
2023-05-14T05:30:01.439Z,0.4766
2023-05-14T05:31:09.558Z,0.4513
2023-05-14T05:32:17.633Z,0.4570
2023-05-14T05:33:25.685Z,0.4758
2023-05-14T05:34:33.720Z,0.4674
2023-05-14T05:35:41.940Z,0.4586
2023-05-14T05:36:49.864Z,0.4778
2023-05-14T05:38:00.528Z,0.4750
2023-05-14T05:39:10.932Z,0.4605
2023-05-14T05:40:18.948Z,0.4555
2023-05-14T05:41:26.890Z,0.4560
2023-05-14T05:42:34.874Z,0.4657
2023-05-14T05:43:42.944Z,0.4624
2023-05-14T05:44:51.134Z,0.4802
2023-05-14T05:45:59.158Z,0.4866
2023-05-14T05:47:07.451Z,0.4823
2023-05-14T05:48:15.312Z,0.4691
2023-05-14T05:49:23.477Z,0.4697
2023-05-14T05:50:31.389Z,0.4564
2023-05-14T05:51:39.471Z,0.4763
2023-05-14T05:52:47.573Z,0.4706
2023-05-14T05:53:55.604Z,0.4679
2023-05-14T05:55:03.790Z,0.4769
2023-05-14T05:56:11.566Z,0.4675
2023-05-14T05:57:19.638Z,0.4777
2023-05-14T05:58:27.768Z,0.4792
2023-05-14T05:59:35.871Z,0.4768
2023-05-14T06:00:44.022Z,0.4769
2023-05-14T06:01:52.086Z,0.4940
2023-05-14T06:03:00.312Z,0.4916
2023-05-14T06:04:08.170Z,0.4924
2023-05-14T06:05:16.303Z,0.4952
2023-05-14T06:06:24.224Z,0.4946
2023-05-14T06:07:32.299Z,0.5016
2023-05-14T06:08:40.396Z,0.5008
2023-05-14T06:09:48.456Z,0.4972
2023-05-14T06:10:56.362Z,0.4896
2023-05-14T06:12:04.378Z,0.4991
2023-05-14T06:13:12.432Z,0.4687
2023-05-14T06:14:20.626Z,0.4821
2023-05-14T06:15:28.801Z,0.4938
2023-05-14T06:16:36.766Z,0.4829
2023-05-14T06:17:44.836Z,0.4845
2023-05-14T06:18:53.047Z,0.4744
2023-05-14T06:20:00.925Z,0.4566
2023-05-14T06:21:09.013Z,0.4641
2023-05-14T06:22:17.036Z,0.4776
2023-05-14T06:23:25.091Z,0.4772
2023-05-14T06:24:33.045Z,0.4727
2023-05-14T06:25:41.083Z,0.4721
2023-05-14T06:26:49.183Z,0.4775
2023-05-14T06:27:57.176Z,0.4793
2023-05-14T06:29:05.386Z,0.4829
2023-05-14T06:30:13.401Z,0.4758
2023-05-14T06:31:21.544Z,0.4487
2023-05-14T06:32:29.609Z,0.4658
2023-05-14T06:33:37.662Z,0.4655
2023-05-14T06:34:45.784Z,0.4730
2023-05-14T06:35:53.937Z,0.4870
2023-05-14T06:37:01.830Z,0.4900
2023-05-14T06:38:10.000Z,0.4896
2023-05-14T06:39:17.908Z,0.4944
2023-05-14T06:40:25.966Z,0.5149
2023-05-14T06:41:33.874Z,0.4872
2023-05-14T06:42:41.949Z,0.4816
2023-05-14T06:43:50.164Z,0.4616
2023-05-14T06:44:58.230Z,0.4850
2023-05-14T06:46:06.270Z,0.4684
2023-05-14T06:47:14.356Z,0.4973
2023-05-14T06:48:22.428Z,0.4865
2023-05-14T06:49:30.467Z,0.4848
2023-05-14T06:50:38.619Z,0.4888
2023-05-14T06:51:46.565Z,0.5021
2023-05-14T06:52:54.609Z,0.4993
2023-05-14T06:54:02.694Z,0.4944
2023-05-14T06:55:10.632Z,0.4855
2023-05-14T06:56:18.655Z,0.4897
2023-05-14T06:57:26.721Z,0.4977
2023-05-14T06:58:34.959Z,0.4907
2023-05-14T06:59:42.982Z,0.4942
2023-05-14T07:00:51.071Z,0.4865
2023-05-14T07:01:59.161Z,0.4810
2023-05-14T07:03:07.213Z,0.4716
2023-05-14T07:04:15.267Z,0.4954
2023-05-14T07:05:23.220Z,0.5104
2023-05-14T07:06:31.392Z,0.5188
2023-05-14T07:07:39.517Z,0.5155
2023-05-14T07:08:47.389Z,0.5264
2023-05-14T07:09:55.380Z,0.5114
2023-05-14T07:11:03.445Z,0.5201
2023-05-14T07:12:11.563Z,0.5231
2023-05-14T07:13:19.688Z,0.4976
2023-05-14T07:14:27.692Z,0.4907
2023-05-14T07:15:35.769Z,0.5243
2023-05-14T07:16:43.882Z,0.5106
2023-05-14T07:17:51.994Z,0.4981
2023-05-14T07:18:59.976Z,0.5195
2023-05-14T07:20:08.046Z,0.5025
2023-05-14T07:21:16.066Z,0.4864
2023-05-14T07:22:24.131Z,0.5055
2023-05-14T07:23:32.196Z,0.5085
2023-05-14T07:24:40.151Z,0.4930
2023-05-14T07:25:48.206Z,0.4807
2023-05-14T07:26:56.285Z,0.4977
2023-05-14T07:28:04.429Z,0.4992
2023-05-14T07:29:12.522Z,0.4883
2023-05-14T07:30:20.541Z,0.4990
2023-05-14T07:31:28.673Z,0.4994
2023-05-14T07:32:36.657Z,0.4995
2023-05-14T07:33:44.666Z,0.4822
2023-05-14T07:34:52.858Z,0.4753
2023-05-14T07:36:00.804Z,0.5000
2023-05-14T07:37:08.883Z,0.5110
2023-05-14T07:38:17.020Z,0.4994
2023-05-14T07:39:24.955Z,0.4985
2023-05-14T07:40:33.121Z,0.5071
2023-05-14T07:41:41.027Z,0.5113
2023-05-14T07:42:49.200Z,0.5014
2023-05-14T07:43:57.618Z,0.5025
2023-05-14T07:45:05.381Z,0.5214
2023-05-14T07:46:13.440Z,0.5117
2023-05-14T07:47:21.443Z,0.5201
2023-05-14T07:48:29.520Z,0.4936
2023-05-14T07:49:37.554Z,0.4863
2023-05-14T07:50:45.630Z,0.4805
2023-05-14T07:51:53.709Z,0.4912
2023-05-14T07:53:01.770Z,0.4892
2023-05-14T07:54:09.680Z,0.5046
2023-05-14T07:55:17.728Z,0.4769
2023-05-14T07:56:25.788Z,0.4912
2023-05-14T07:57:34.178Z,0.4941
2023-05-14T07:58:41.973Z,0.4883
2023-05-14T07:59:50.154Z,0.4895
2023-05-14T08:00:58.099Z,0.4865
2023-05-14T08:02:06.185Z,0.4886
2023-05-14T08:03:14.415Z,0.4918
2023-05-14T08:04:22.414Z,0.4723
2023-05-14T08:05:30.337Z,0.4834
2023-05-14T08:06:38.498Z,0.4911
2023-05-14T08:07:46.501Z,0.5034
2023-05-14T08:08:54.452Z,0.4794
2023-05-14T08:10:02.478Z,0.5055
2023-05-14T08:11:10.610Z,0.5089
2023-05-14T08:12:18.702Z,0.4999
2023-05-14T08:13:26.917Z,0.4976
2023-05-14T08:14:34.863Z,0.4943
2023-05-14T08:15:42.968Z,0.5003
2023-05-14T08:16:51.040Z,0.5288
2023-05-14T08:17:59.017Z,0.5155
2023-05-14T08:19:07.107Z,0.5056
2023-05-14T08:20:15.343Z,0.4901
2023-05-14T08:21:23.257Z,0.4933
2023-05-14T08:22:31.341Z,0.5031
2023-05-14T08:23:39.260Z,0.4971
2023-05-14T08:24:47.314Z,0.4720
2023-05-14T08:25:55.406Z,0.4855
2023-05-14T08:27:03.412Z,0.4721
2023-05-14T08:28:11.623Z,0.4926
2023-05-14T08:29:19.656Z,0.5090
2023-05-14T08:30:27.891Z,0.4728
2023-05-14T08:31:35.821Z,0.4715
2023-05-14T08:32:43.868Z,0.4788
2023-05-14T08:33:51.890Z,0.4764
2023-05-14T08:34:59.957Z,0.4717
2023-05-14T08:36:08.072Z,0.5008
2023-05-14T08:37:16.139Z,0.4686
2023-05-14T08:38:23.984Z,0.4676
2023-05-14T08:39:32.080Z,0.4884
2023-05-14T08:40:40.107Z,0.4848
2023-05-14T08:41:48.298Z,0.4981
2023-05-14T08:42:56.456Z,0.5029
2023-05-14T08:44:04.413Z,0.5109
2023-05-14T08:45:12.476Z,0.5113
2023-05-14T08:46:20.550Z,0.5121
2023-05-14T08:47:28.626Z,0.5012
2023-05-14T08:48:36.728Z,0.4979
2023-05-14T08:49:44.705Z,0.5047
2023-05-14T08:50:52.733Z,0.4882
2023-05-14T08:52:00.813Z,0.4827
2023-05-14T08:53:08.753Z,0.4750
2023-05-14T08:54:16.846Z,0.4848
2023-05-14T08:55:24.836Z,0.4784
2023-05-14T08:56:33.070Z,0.4650
2023-05-14T08:57:41.106Z,0.4623
2023-05-14T08:58:49.132Z,0.4924
2023-05-14T08:59:57.272Z,0.4955
2023-05-14T09:01:05.224Z,0.4881
2023-05-14T09:02:13.347Z,0.4874
2023-05-14T09:03:21.423Z,0.4695
2023-05-14T09:04:29.414Z,0.5003
2023-05-14T09:05:37.553Z,0.4852
2023-05-14T09:06:45.497Z,0.4790
2023-05-14T09:07:53.480Z,0.4952
2023-05-14T09:09:01.547Z,0.4871
2023-05-14T09:10:09.564Z,0.4976
2023-05-14T09:11:17.980Z,0.4791
2023-05-14T09:12:25.766Z,0.4981
2023-05-14T09:13:33.827Z,0.4947
2023-05-14T09:14:41.956Z,0.4848
2023-05-14T09:15:49.997Z,0.4806
2023-05-14T09:16:58.061Z,0.4971
2023-05-14T09:18:06.303Z,0.4806
2023-05-14T09:19:14.198Z,0.4828
2023-05-14T09:20:22.718Z,0.4743
2023-05-14T09:21:32.178Z,0.4648
2023-05-14T09:22:43.104Z,0.4812
2023-05-14T09:23:51.274Z,0.4849
2023-05-14T09:24:59.276Z,0.4925
2023-05-14T09:26:07.534Z,0.4866
2023-05-14T09:27:15.410Z,0.4748
2023-05-14T09:28:23.420Z,0.4852
2023-05-14T09:29:31.527Z,0.5045
2023-05-14T09:30:39.618Z,0.4893
2023-05-14T09:31:47.694Z,0.4993
2023-05-14T09:32:55.813Z,0.5284
2023-05-14T09:34:03.826Z,0.5336
2023-05-14T09:35:11.757Z,0.5073
2023-05-14T09:36:19.824Z,0.4907
2023-05-14T09:37:27.855Z,0.4603
2023-05-14T09:38:35.980Z,0.4882
2023-05-14T09:39:44.094Z,0.4746
2023-05-14T09:40:52.189Z,0.4818
2023-05-14T09:42:00.200Z,0.4715
2023-05-14T09:43:08.264Z,0.4871
2023-05-14T09:44:16.343Z,0.4989
2023-05-14T09:45:24.451Z,0.4839
2023-05-14T09:46:32.415Z,0.4894
2023-05-14T09:47:40.564Z,0.4692
2023-05-14T09:48:48.506Z,0.4787
2023-05-14T09:49:56.517Z,0.4859
2023-05-14T09:51:04.910Z,0.4804
2023-05-14T09:52:12.638Z,0.4811
2023-05-14T09:53:20.846Z,0.4781
2023-05-14T09:54:28.877Z,0.4744
2023-05-14T09:55:36.911Z,0.4816
2023-05-14T09:56:45.007Z,0.4807
2023-05-14T09:57:53.040Z,0.4873
2023-05-14T09:59:01.132Z,0.5026
2023-05-14T10:00:09.056Z,0.5130
2023-05-14T10:01:17.254Z,0.5189
2023-05-14T10:02:25.553Z,0.5139
2023-05-14T10:03:33.253Z,0.5465
2023-05-14T10:04:41.310Z,0.5011
2023-05-14T10:05:49.367Z,0.4995
2023-05-14T10:06:57.559Z,0.4984
2023-05-14T10:08:05.601Z,0.5044
2023-05-14T10:09:13.673Z,0.5001
2023-05-14T10:10:21.959Z,0.4941
2023-05-14T10:11:29.804Z,0.4818
2023-05-14T10:12:37.857Z,0.4653
2023-05-14T10:13:46.082Z,0.4708
2023-05-14T10:14:53.977Z,0.4730
2023-05-14T10:16:02.045Z,0.4727
2023-05-14T10:17:10.246Z,0.4796
2023-05-14T10:18:18.149Z,0.4865
2023-05-14T10:19:26.225Z,0.4871
2023-05-14T10:20:34.103Z,0.4986
2023-05-14T10:21:42.315Z,0.5022
2023-05-14T10:22:50.360Z,0.5164
2023-05-14T10:23:58.493Z,0.5106
2023-05-14T10:25:06.526Z,0.4907
2023-05-14T10:26:14.560Z,0.4883
2023-05-14T10:27:22.645Z,0.4894
2023-05-14T10:28:30.687Z,0.4754
2023-05-14T10:29:38.826Z,0.4653
2023-05-14T10:30:46.850Z,0.4749
2023-05-14T10:31:54.820Z,0.4799
2023-05-14T10:33:02.792Z,0.4875
2023-05-14T10:34:10.839Z,0.4853
2023-05-14T10:35:18.914Z,0.4899
2023-05-14T10:36:27.104Z,0.4979
2023-05-14T10:37:35.150Z,0.4892
2023-05-14T10:38:43.331Z,0.4740
2023-05-14T10:39:51.259Z,0.4690
2023-05-14T10:40:59.302Z,0.4700
2023-05-14T10:42:07.496Z,0.4920
2023-05-14T10:43:15.420Z,0.4922
2023-05-14T10:44:23.688Z,0.4772
2023-05-14T10:45:31.569Z,0.4746
2023-05-14T10:46:39.718Z,0.4933
2023-05-14T10:47:47.619Z,0.4734
2023-05-14T10:48:55.582Z,0.4546
2023-05-14T10:50:03.656Z,0.4565
2023-05-14T10:51:11.938Z,0.4559
2023-05-14T10:52:19.912Z,0.4608
2023-05-14T10:53:28.039Z,0.4674
2023-05-14T10:54:36.164Z,0.4798
2023-05-14T10:55:44.067Z,0.4798
2023-05-14T10:56:52.136Z,0.4841
2023-05-14T10:58:00.223Z,0.4732
2023-05-14T10:59:08.276Z,0.4957
2023-05-14T11:00:16.317Z,0.4886
2023-05-14T11:01:24.433Z,0.4792
2023-05-14T11:02:32.334Z,0.4977
2023-05-14T11:03:40.395Z,0.4878
2023-05-14T11:04:48.473Z,0.4750
2023-05-14T11:05:56.826Z,0.4668
2023-05-14T11:07:04.701Z,0.4669
2023-05-14T11:08:12.763Z,0.4608
2023-05-14T11:09:20.796Z,0.4675
2023-05-14T11:10:28.987Z,0.4663
2023-05-14T11:11:36.928Z,0.4697
2023-05-14T11:12:44.977Z,0.4539
2023-05-14T11:13:52.989Z,0.4785
2023-05-14T11:15:01.083Z,0.4726
2023-05-14T11:16:21.977Z,0.4841
2023-05-14T11:17:21.941Z,0.4711
2023-05-14T11:18:30.067Z,0.4733
2023-05-14T11:19:38.066Z,0.4816
2023-05-14T11:20:46.240Z,0.4740
2023-05-14T11:21:54.361Z,0.4708
2023-05-14T11:23:02.373Z,0.4772
2023-05-14T11:24:10.416Z,0.4894
2023-05-14T11:25:18.455Z,0.4816
2023-05-14T11:26:26.685Z,0.5031
2023-05-14T11:27:34.666Z,0.4987
2023-05-14T11:28:42.629Z,0.4539
2023-05-14T11:29:50.802Z,0.4691
2023-05-14T11:30:58.763Z,0.4640
2023-05-14T11:32:06.759Z,0.4710
2023-05-14T11:33:14.880Z,0.4711
2023-05-14T11:34:22.850Z,0.4830
2023-05-14T11:35:31.024Z,0.4931
2023-05-14T11:36:39.045Z,0.4860
2023-05-14T11:37:47.098Z,0.4812
2023-05-14T11:38:55.223Z,0.5069
2023-05-14T11:40:03.345Z,0.5041
2023-05-14T11:41:11.288Z,0.4942
2023-05-14T11:42:19.532Z,0.5016
2023-05-14T11:43:27.439Z,0.5148
2023-05-14T11:44:35.498Z,0.5206
2023-05-14T11:45:43.536Z,0.5078
2023-05-14T11:46:51.429Z,0.5128
2023-05-14T11:47:59.508Z,0.5175
2023-05-14T11:49:07.553Z,0.5060
2023-05-14T11:50:15.857Z,0.5034
2023-05-14T11:51:23.807Z,0.4852
2023-05-14T11:52:31.854Z,0.4872
2023-05-14T11:53:39.894Z,0.5004
2023-05-14T11:54:47.980Z,0.5236
2023-05-14T11:55:56.135Z,0.5160
2023-05-14T11:57:04.095Z,0.5052
2023-05-14T11:58:12.184Z,0.5200
2023-05-14T11:59:20.363Z,0.5154
2023-05-14T12:00:28.273Z,0.5034
2023-05-14T12:01:36.235Z,0.5053
2023-05-14T12:02:44.302Z,0.5034
2023-05-14T12:03:52.478Z,0.5185
2023-05-14T12:05:00.553Z,0.5168
2023-05-14T12:06:08.589Z,0.5272
2023-05-14T12:07:16.731Z,0.5266
2023-05-14T12:08:24.655Z,0.5175
2023-05-14T12:09:32.696Z,0.5183
2023-05-14T12:10:40.770Z,0.4843
2023-05-14T12:11:48.806Z,0.4860
2023-05-14T12:12:56.916Z,0.4817
2023-05-14T12:14:05.164Z,0.4938
2023-05-14T12:15:13.015Z,0.5028
2023-05-14T12:16:21.005Z,0.4958
2023-05-14T12:17:29.083Z,0.4882
2023-05-14T12:18:37.241Z,0.4797
2023-05-14T12:19:45.275Z,0.4561
2023-05-14T12:20:53.297Z,0.4545
2023-05-14T12:22:01.388Z,0.4744
2023-05-14T12:23:09.602Z,0.4618
2023-05-14T12:24:17.684Z,0.4724
2023-05-14T12:25:25.634Z,0.4820
2023-05-14T12:26:33.799Z,0.4906
2023-05-14T12:27:41.721Z,0.5211
2023-05-14T12:28:49.768Z,0.5035
2023-05-14T12:30:01.985Z,0.4886
2023-05-14T12:31:10.706Z,0.4956
2023-05-14T12:32:18.765Z,0.4980
2023-05-14T12:33:26.816Z,0.4753
2023-05-14T12:34:37.227Z,0.4897
2023-05-14T12:35:47.932Z,0.5153
2023-05-14T12:36:55.957Z,0.5340
2023-05-14T12:38:04.046Z,0.5098
2023-05-14T12:39:12.070Z,0.5126
2023-05-14T12:40:20.273Z,0.5114
2023-05-14T12:41:28.445Z,0.5200
2023-05-14T12:42:36.298Z,0.5115
2023-05-14T12:43:44.421Z,0.5150
2023-05-14T12:44:52.296Z,0.5084
2023-05-14T12:46:00.329Z,0.4997
2023-05-14T12:47:08.521Z,0.4996
2023-05-14T12:48:16.590Z,0.4927
2023-05-14T12:49:24.642Z,0.4944
2023-05-14T12:50:32.805Z,0.4761
2023-05-14T12:51:40.855Z,0.4796
2023-05-14T12:52:48.857Z,0.4977
2023-05-14T12:53:56.968Z,0.5158
2023-05-14T12:55:05.058Z,0.5149
2023-05-14T12:56:13.042Z,0.5343
2023-05-14T12:57:21.105Z,0.5376
2023-05-14T12:58:29.370Z,0.5304
2023-05-14T12:59:37.122Z,0.5259
2023-05-14T13:00:45.187Z,0.5142
2023-05-14T13:01:53.220Z,0.5394
2023-05-14T13:03:01.444Z,0.5515
2023-05-14T13:04:09.539Z,0.5527
2023-05-14T13:05:17.585Z,0.5434
2023-05-14T13:06:25.706Z,0.5127
2023-05-14T13:07:33.649Z,0.5201
2023-05-14T13:08:42.739Z,0.5276
2023-05-14T13:09:49.902Z,0.5120
2023-05-14T13:10:57.839Z,0.4983
2023-05-14T13:12:05.898Z,0.4963
2023-05-14T13:13:13.988Z,0.4911
2023-05-14T13:14:21.905Z,0.4901
2023-05-14T13:15:30.012Z,0.5051
2023-05-14T13:16:38.062Z,0.5222
2023-05-14T13:17:46.252Z,0.5009
2023-05-14T13:18:54.302Z,0.5063
2023-05-14T13:20:02.318Z,0.5034
2023-05-14T13:21:10.523Z,0.5068
2023-05-14T13:22:18.579Z,0.5080
2023-05-14T13:23:26.541Z,0.5217
2023-05-14T13:24:34.599Z,0.5037
2023-05-14T13:25:42.663Z,0.5081
2023-05-14T13:26:50.745Z,0.5063
2023-05-14T13:27:58.785Z,0.4979
2023-05-14T13:29:06.712Z,0.5158
2023-05-14T13:30:14.805Z,0.5013
2023-05-14T13:31:22.962Z,0.4833
2023-05-14T13:32:31.032Z,0.4994
2023-05-14T13:33:39.085Z,0.5042
2023-05-14T13:34:47.126Z,0.4936
2023-05-14T13:35:55.238Z,0.4811
2023-05-14T13:37:03.285Z,0.4656
2023-05-14T13:38:11.562Z,0.4744
2023-05-14T13:39:19.450Z,0.4783
2023-05-14T13:40:27.459Z,0.4777
2023-05-14T13:41:35.541Z,0.4686
2023-05-14T13:42:43.618Z,0.4592
2023-05-14T13:43:51.567Z,0.4624
2023-05-14T13:44:59.604Z,0.4660
2023-05-14T13:46:07.710Z,0.4713
2023-05-14T13:47:15.897Z,0.4875
2023-05-14T13:48:23.902Z,0.4880
2023-05-14T13:49:32.033Z,0.4889
2023-05-14T13:50:40.055Z,0.4937
2023-05-14T13:51:48.119Z,0.5002
2023-05-14T13:52:56.187Z,0.4733
2023-05-14T13:54:04.326Z,0.5002
2023-05-14T13:55:12.320Z,0.4999
2023-05-14T13:56:20.315Z,0.4670
2023-05-14T13:57:28.375Z,0.4678
2023-05-14T13:58:36.327Z,0.4665
2023-05-14T13:59:44.414Z,0.4670
2023-05-14T14:00:52.523Z,0.4773
2023-05-14T14:02:00.636Z,0.4701
2023-05-14T14:03:08.697Z,0.4653
2023-05-14T14:04:16.722Z,0.4625
2023-05-14T14:05:25.052Z,0.4791
2023-05-14T14:06:32.877Z,0.4667
2023-05-14T14:07:40.948Z,0.4530
2023-05-14T14:08:49.033Z,0.4579
2023-05-14T14:09:57.053Z,0.4493